sensor_id;sensor_type;location;lat;lon;timestamp;temperature;humidity
9723;DHT22;4900;49.306;8.500;2024-02-23T00:01:30;9.63;67.65
9723;DHT22;4900;49.306;8.500;2024-02-23T00:03:55;9.58;67.98
9723;DHT22;4900;49.306;8.500;2024-02-23T00:06:21;9.63;68.05
9723;DHT22;4900;49.306;8.500;2024-02-23T00:08:48;9.62;68.19
9723;DHT22;4900;49.306;8.500;2024-02-23T00:11:13;9.59;68.36
9723;DHT22;4900;49.306;8.500;2024-02-23T00:13:39;9.53;68.54
9723;DHT22;4900;49.306;8.500;2024-02-23T00:16:04;9.61;68.34
9723;DHT22;4900;49.306;8.500;2024-02-23T00:18:30;9.58;68.50
9723;DHT22;4900;49.306;8.500;2024-02-23T00:20:56;9.58;68.70
9723;DHT22;4900;49.306;8.500;2024-02-23T00:23:22;9.55;68.63
9723;DHT22;4900;49.306;8.500;2024-02-23T00:25:47;9.48;68.57
9723;DHT22;4900;49.306;8.500;2024-02-23T00:28:13;9.48;68.43
9723;DHT22;4900;49.306;8.500;2024-02-23T00:30:38;9.36;68.56
9723;DHT22;4900;49.306;8.500;2024-02-23T00:33:04;9.39;68.14
9723;DHT22;4900;49.306;8.500;2024-02-23T00:35:30;9.36;68.07
9723;DHT22;4900;49.306;8.500;2024-02-23T00:37:55;9.41;68.09
9723;DHT22;4900;49.306;8.500;2024-02-23T00:40:21;9.30;67.89
9723;DHT22;4900;49.306;8.500;2024-02-23T00:42:48;9.25;67.53
9723;DHT22;4900;49.306;8.500;2024-02-23T00:45:14;9.18;67.53
9723;DHT22;4900;49.306;8.500;2024-02-23T00:47:39;9.13;67.31
9723;DHT22;4900;49.306;8.500;2024-02-23T00:50:05;9.14;67.22
9723;DHT22;4900;49.306;8.500;2024-02-23T00:52:31;9.16;67.17
9723;DHT22;4900;49.306;8.500;2024-02-23T00:54:57;9.11;67.07
9723;DHT22;4900;49.306;8.500;2024-02-23T00:57:23;9.04;67.35
9723;DHT22;4900;49.306;8.500;2024-02-23T00:59:52;8.97;67.29
9723;DHT22;4900;49.306;8.500;2024-02-23T01:02:18;9.01;67.09
9723;DHT22;4900;49.306;8.500;2024-02-23T01:04:43;8.97;67.04
9723;DHT22;4900;49.306;8.500;2024-02-23T01:07:09;8.86;67.06
9723;DHT22;4900;49.306;8.500;2024-02-23T01:09:34;8.97;66.91
9723;DHT22;4900;49.306;8.500;2024-02-23T01:12:00;8.79;67.15
9723;DHT22;4900;49.306;8.500;2024-02-23T01:14:25;8.83;66.93
9723;DHT22;4900;49.306;8.500;2024-02-23T01:16:51;8.79;67.01
9723;DHT22;4900;49.306;8.500;2024-02-23T01:19:16;8.76;67.27
9723;DHT22;4900;49.306;8.500;2024-02-23T01:21:41;8.77;67.16
9723;DHT22;4900;49.306;8.500;2024-02-23T01:24:07;8.63;67.51
9723;DHT22;4900;49.306;8.500;2024-02-23T01:26:32;8.69;67.42
9723;DHT22;4900;49.306;8.500;2024-02-23T01:28:58;8.62;67.37
9723;DHT22;4900;49.306;8.500;2024-02-23T01:31:24;8.58;67.41
9723;DHT22;4900;49.306;8.500;2024-02-23T01:33:50;8.55;67.55
9723;DHT22;4900;49.306;8.500;2024-02-23T01:36:16;8.61;67.48
9723;DHT22;4900;49.306;8.500;2024-02-23T01:38:43;8.55;67.37
9723;DHT22;4900;49.306;8.500;2024-02-23T01:41:08;8.61;67.27
9723;DHT22;4900;49.306;8.500;2024-02-23T01:43:34;8.59;67.32
9723;DHT22;4900;49.306;8.500;2024-02-23T01:45:59;8.55;67.16
9723;DHT22;4900;49.306;8.500;2024-02-23T01:48:25;8.52;66.96
9723;DHT22;4900;49.306;8.500;2024-02-23T01:50:53;8.45;66.93
9723;DHT22;4900;49.306;8.500;2024-02-23T01:53:20;8.58;66.57
9723;DHT22;4900;49.306;8.500;2024-02-23T01:55:47;8.59;66.79
9723;DHT22;4900;49.306;8.500;2024-02-23T01:58:13;8.61;66.61
9723;DHT22;4900;49.306;8.500;2024-02-23T02:00:39;8.56;66.65
9723;DHT22;4900;49.306;8.500;2024-02-23T02:03:04;8.55;66.58
9723;DHT22;4900;49.306;8.500;2024-02-23T02:05:30;8.54;66.61
9723;DHT22;4900;49.306;8.500;2024-02-23T02:07:56;8.58;66.47
9723;DHT22;4900;49.306;8.500;2024-02-23T02:10:25;8.56;66.45
9723;DHT22;4900;49.306;8.500;2024-02-23T02:12:51;8.46;66.46
9723;DHT22;4900;49.306;8.500;2024-02-23T02:15:17;8.44;66.29
9723;DHT22;4900;49.306;8.500;2024-02-23T02:17:42;8.38;65.85
9723;DHT22;4900;49.306;8.500;2024-02-23T02:20:12;8.42;65.85
9723;DHT22;4900;49.306;8.500;2024-02-23T02:22:39;8.37;65.82
9723;DHT22;4900;49.306;8.500;2024-02-23T02:25:05;8.37;65.87
9723;DHT22;4900;49.306;8.500;2024-02-23T02:27:31;8.41;65.88
9723;DHT22;4900;49.306;8.500;2024-02-23T02:29:57;8.46;66.02
9723;DHT22;4900;49.306;8.500;2024-02-23T02:32:23;8.54;65.90
9723;DHT22;4900;49.306;8.500;2024-02-23T02:34:48;8.58;65.82
9723;DHT22;4900;49.306;8.500;2024-02-23T02:37:13;8.49;65.92
9723;DHT22;4900;49.306;8.500;2024-02-23T02:39:39;8.46;65.89
9723;DHT22;4900;49.306;8.500;2024-02-23T02:42:04;8.51;65.80
9723;DHT22;4900;49.306;8.500;2024-02-23T02:44:30;8.56;65.42
9723;DHT22;4900;49.306;8.500;2024-02-23T02:46:56;8.52;65.74
9723;DHT22;4900;49.306;8.500;2024-02-23T02:49:23;8.59;65.47
9723;DHT22;4900;49.306;8.500;2024-02-23T02:51:50;8.62;65.35
9723;DHT22;4900;49.306;8.500;2024-02-23T02:54:16;8.61;65.59
9723;DHT22;4900;49.306;8.500;2024-02-23T02:56:51;8.61;65.43
9723;DHT22;4900;49.306;8.500;2024-02-23T02:59:20;8.66;65.50
9723;DHT22;4900;49.306;8.500;2024-02-23T03:01:45;8.73;65.45
9723;DHT22;4900;49.306;8.500;2024-02-23T03:04:14;8.80;65.44
9723;DHT22;4900;49.306;8.500;2024-02-23T03:06:40;8.80;65.66
9723;DHT22;4900;49.306;8.500;2024-02-23T03:09:05;8.75;65.56
9723;DHT22;4900;49.306;8.500;2024-02-23T03:11:30;8.76;65.61
9723;DHT22;4900;49.306;8.500;2024-02-23T03:13:56;8.80;65.57
9723;DHT22;4900;49.306;8.500;2024-02-23T03:16:21;8.75;65.72
9723;DHT22;4900;49.306;8.500;2024-02-23T03:18:48;8.76;65.74
9723;DHT22;4900;49.306;8.500;2024-02-23T03:21:14;8.80;65.55
9723;DHT22;4900;49.306;8.500;2024-02-23T03:23:40;8.83;65.44
9723;DHT22;4900;49.306;8.500;2024-02-23T03:26:07;8.83;65.65
9723;DHT22;4900;49.306;8.500;2024-02-23T03:28:32;8.83;65.53
9723;DHT22;4900;49.306;8.500;2024-02-23T03:30:59;8.77;65.64
9723;DHT22;4900;49.306;8.500;2024-02-23T03:33:25;8.79;65.40
9723;DHT22;4900;49.306;8.500;2024-02-23T03:35:50;8.80;65.26
9723;DHT22;4900;49.306;8.500;2024-02-23T03:38:15;8.69;65.26
9723;DHT22;4900;49.306;8.500;2024-02-23T03:40:41;8.69;64.68
9723;DHT22;4900;49.306;8.500;2024-02-23T03:43:06;8.69;64.92
9723;DHT22;4900;49.306;8.500;2024-02-23T03:45:32;8.61;64.82
9723;DHT22;4900;49.306;8.500;2024-02-23T03:47:58;8.71;64.70
9723;DHT22;4900;49.306;8.500;2024-02-23T03:50:23;8.71;65.06
9723;DHT22;4900;49.306;8.500;2024-02-23T03:52:49;8.75;64.82
9723;DHT22;4900;49.306;8.500;2024-02-23T03:55:15;8.80;65.02
9723;DHT22;4900;49.306;8.500;2024-02-23T03:57:40;8.79;65.31
9723;DHT22;4900;49.306;8.500;2024-02-23T04:00:07;8.82;65.55
9723;DHT22;4900;49.306;8.500;2024-02-23T04:02:35;8.77;65.84
9723;DHT22;4900;49.306;8.500;2024-02-23T04:05:00;8.66;65.69
9723;DHT22;4900;49.306;8.500;2024-02-23T04:07:26;8.72;65.54
9723;DHT22;4900;49.306;8.500;2024-02-23T04:09:51;8.59;65.84
9723;DHT22;4900;49.306;8.500;2024-02-23T04:12:21;8.65;65.80
9723;DHT22;4900;49.306;8.500;2024-02-23T04:14:47;8.58;66.11
9723;DHT22;4900;49.306;8.500;2024-02-23T04:17:12;8.56;66.43
9723;DHT22;4900;49.306;8.500;2024-02-23T04:19:38;8.59;66.68
9723;DHT22;4900;49.306;8.500;2024-02-23T04:22:08;8.56;66.80
9723;DHT22;4900;49.306;8.500;2024-02-23T04:24:37;8.58;66.91
9723;DHT22;4900;49.306;8.500;2024-02-23T04:27:04;8.58;66.88
9723;DHT22;4900;49.306;8.500;2024-02-23T04:29:29;8.56;66.94
9723;DHT22;4900;49.306;8.500;2024-02-23T04:31:55;8.56;66.95
9723;DHT22;4900;49.306;8.500;2024-02-23T04:34:20;8.61;66.88
9723;DHT22;4900;49.306;8.500;2024-02-23T04:36:46;8.58;66.93
9723;DHT22;4900;49.306;8.500;2024-02-23T04:39:11;8.55;66.96
9723;DHT22;4900;49.306;8.500;2024-02-23T04:41:36;8.58;66.93
9723;DHT22;4900;49.306;8.500;2024-02-23T04:44:02;8.44;67.05
9723;DHT22;4900;49.306;8.500;2024-02-23T04:46:27;8.48;67.05
9723;DHT22;4900;49.306;8.500;2024-02-23T04:48:53;8.46;67.07
9723;DHT22;4900;49.306;8.500;2024-02-23T04:51:18;8.44;67.19
9723;DHT22;4900;49.306;8.500;2024-02-23T04:53:44;8.49;67.12
9723;DHT22;4900;49.306;8.500;2024-02-23T04:56:09;8.46;67.13
9723;DHT22;4900;49.306;8.500;2024-02-23T04:58:35;8.40;67.27
9723;DHT22;4900;49.306;8.500;2024-02-23T05:01:01;8.37;67.24
9723;DHT22;4900;49.306;8.500;2024-02-23T05:03:28;8.33;67.36
9723;DHT22;4900;49.306;8.500;2024-02-23T05:05:54;8.34;67.19
9723;DHT22;4900;49.306;8.500;2024-02-23T05:08:20;8.35;67.03
9723;DHT22;4900;49.306;8.500;2024-02-23T05:10:46;8.30;67.19
9723;DHT22;4900;49.306;8.500;2024-02-23T05:13:12;8.23;67.37
9723;DHT22;4900;49.306;8.500;2024-02-23T05:15:37;8.23;67.18
9723;DHT22;4900;49.306;8.500;2024-02-23T05:18:03;8.28;67.12
9723;DHT22;4900;49.306;8.500;2024-02-23T05:20:28;8.30;67.15
9723;DHT22;4900;49.306;8.500;2024-02-23T05:22:54;8.21;67.16
9723;DHT22;4900;49.306;8.500;2024-02-23T05:25:20;8.26;67.13
9723;DHT22;4900;49.306;8.500;2024-02-23T05:27:46;8.26;67.07
9723;DHT22;4900;49.306;8.500;2024-02-23T05:30:12;8.24;67.12
9723;DHT22;4900;49.306;8.500;2024-02-23T05:32:37;8.14;67.40
9723;DHT22;4900;49.306;8.500;2024-02-23T05:35:03;8.16;67.17
9723;DHT22;4900;49.306;8.500;2024-02-23T05:37:28;8.18;67.16
9723;DHT22;4900;49.306;8.500;2024-02-23T05:39:54;8.13;67.24
9723;DHT22;4900;49.306;8.500;2024-02-23T05:42:25;8.06;67.40
9723;DHT22;4900;49.306;8.500;2024-02-23T05:44:51;8.06;67.05
9723;DHT22;4900;49.306;8.500;2024-02-23T05:47:16;8.07;67.00
9723;DHT22;4900;49.306;8.500;2024-02-23T05:49:42;8.14;66.91
9723;DHT22;4900;49.306;8.500;2024-02-23T05:52:08;7.98;66.90
9723;DHT22;4900;49.306;8.500;2024-02-23T05:54:34;8.10;66.66
9723;DHT22;4900;49.306;8.500;2024-02-23T05:57:00;8.07;66.39
9723;DHT22;4900;49.306;8.500;2024-02-23T05:59:26;7.99;66.49
9723;DHT22;4900;49.306;8.500;2024-02-23T06:01:52;8.05;66.40
9723;DHT22;4900;49.306;8.500;2024-02-23T06:04:22;7.99;66.40
9723;DHT22;4900;49.306;8.500;2024-02-23T06:06:47;8.07;66.29
9723;DHT22;4900;49.306;8.500;2024-02-23T06:09:16;8.09;66.14
9723;DHT22;4900;49.306;8.500;2024-02-23T06:11:41;8.02;66.06
9723;DHT22;4900;49.306;8.500;2024-02-23T06:14:07;7.98;66.01
9723;DHT22;4900;49.306;8.500;2024-02-23T06:16:33;7.90;66.00
9723;DHT22;4900;49.306;8.500;2024-02-23T06:18:58;7.93;65.94
9723;DHT22;4900;49.306;8.500;2024-02-23T06:21:24;7.81;66.16
9723;DHT22;4900;49.306;8.500;2024-02-23T06:23:50;7.79;65.97
9723;DHT22;4900;49.306;8.500;2024-02-23T06:26:15;7.79;66.06
9723;DHT22;4900;49.306;8.500;2024-02-23T06:28:41;7.79;65.93
9723;DHT22;4900;49.306;8.500;2024-02-23T06:31:09;7.75;66.02
9723;DHT22;4900;49.306;8.500;2024-02-23T06:33:35;7.63;66.34
9723;DHT22;4900;49.306;8.500;2024-02-23T06:36:00;7.65;66.29
9723;DHT22;4900;49.306;8.500;2024-02-23T06:38:26;7.62;66.37
9723;DHT22;4900;49.306;8.500;2024-02-23T06:40:52;7.51;66.40
9723;DHT22;4900;49.306;8.500;2024-02-23T06:43:18;7.48;66.19
9723;DHT22;4900;49.306;8.500;2024-02-23T06:45:44;7.41;66.13
9723;DHT22;4900;49.306;8.500;2024-02-23T06:48:10;7.40;66.00
9723;DHT22;4900;49.306;8.500;2024-02-23T06:50:35;7.43;66.11
9723;DHT22;4900;49.306;8.500;2024-02-23T06:53:01;7.34;66.12
9723;DHT22;4900;49.306;8.500;2024-02-23T06:55:27;7.28;66.14
9723;DHT22;4900;49.306;8.500;2024-02-23T06:57:53;7.31;65.86
9723;DHT22;4900;49.306;8.500;2024-02-23T07:00:20;7.38;65.81
9723;DHT22;4900;49.306;8.500;2024-02-23T07:02:46;7.35;65.84
9723;DHT22;4900;49.306;8.500;2024-02-23T07:05:12;7.34;66.01
9723;DHT22;4900;49.306;8.500;2024-02-23T07:07:38;7.33;65.90
9723;DHT22;4900;49.306;8.500;2024-02-23T07:10:05;7.34;66.03
9723;DHT22;4900;49.306;8.500;2024-02-23T07:12:31;7.30;66.14
9723;DHT22;4900;49.306;8.500;2024-02-23T07:14:58;7.26;65.84
9723;DHT22;4900;49.306;8.500;2024-02-23T07:17:23;7.15;66.22
9723;DHT22;4900;49.306;8.500;2024-02-23T07:19:49;7.22;65.84
9723;DHT22;4900;49.306;8.500;2024-02-23T07:22:16;7.22;65.91
9723;DHT22;4900;49.306;8.500;2024-02-23T07:24:43;7.23;65.90
9723;DHT22;4900;49.306;8.500;2024-02-23T07:27:09;7.23;65.86
9723;DHT22;4900;49.306;8.500;2024-02-23T07:29:34;7.34;65.81
9723;DHT22;4900;49.306;8.500;2024-02-23T07:32:00;7.35;65.43
9723;DHT22;4900;49.306;8.500;2024-02-23T07:34:25;7.35;65.66
9723;DHT22;4900;49.306;8.500;2024-02-23T07:36:54;7.31;65.64
9723;DHT22;4900;49.306;8.500;2024-02-23T07:39:20;7.34;65.51
9723;DHT22;4900;49.306;8.500;2024-02-23T07:41:47;7.27;65.50
9723;DHT22;4900;49.306;8.500;2024-02-23T07:44:12;7.33;65.38
9723;DHT22;4900;49.306;8.500;2024-02-23T07:46:38;7.34;65.43
9723;DHT22;4900;49.306;8.500;2024-02-23T07:49:06;7.34;65.57
9723;DHT22;4900;49.306;8.500;2024-02-23T07:51:32;7.40;65.54
9723;DHT22;4900;49.306;8.500;2024-02-23T07:53:57;7.43;65.41
9723;DHT22;4900;49.306;8.500;2024-02-23T07:56:23;7.50;65.21
9723;DHT22;4900;49.306;8.500;2024-02-23T07:58:48;7.59;65.27
9723;DHT22;4900;49.306;8.500;2024-02-23T08:01:14;7.68;65.17
9723;DHT22;4900;49.306;8.500;2024-02-23T08:03:40;7.83;64.99
9723;DHT22;4900;49.306;8.500;2024-02-23T08:06:05;8.12;64.77
9723;DHT22;4900;49.306;8.500;2024-02-23T08:08:31;8.38;63.99
9723;DHT22;4900;49.306;8.500;2024-02-23T08:11:00;8.69;63.76
9723;DHT22;4900;49.306;8.500;2024-02-23T08:13:25;8.97;63.19
9723;DHT22;4900;49.306;8.500;2024-02-23T08:15:51;9.27;62.71
9723;DHT22;4900;49.306;8.500;2024-02-23T08:18:16;9.52;61.70
9723;DHT22;4900;49.306;8.500;2024-02-23T08:20:42;9.65;60.78
9723;DHT22;4900;49.306;8.500;2024-02-23T08:23:07;10.01;60.80
9723;DHT22;4900;49.306;8.500;2024-02-23T08:25:34;10.27;59.98
9723;DHT22;4900;49.306;8.500;2024-02-23T08:27:59;10.49;60.07
9723;DHT22;4900;49.306;8.500;2024-02-23T08:30:25;10.80;59.32
9723;DHT22;4900;49.306;8.500;2024-02-23T08:32:50;11.07;59.17
9723;DHT22;4900;49.306;8.500;2024-02-23T08:35:16;11.22;58.84
9723;DHT22;4900;49.306;8.500;2024-02-23T08:37:41;11.25;57.75
9723;DHT22;4900;49.306;8.500;2024-02-23T08:40:08;11.41;57.51
9723;DHT22;4900;49.306;8.500;2024-02-23T08:42:34;11.36;57.58
9723;DHT22;4900;49.306;8.500;2024-02-23T08:45:00;11.46;56.67
9723;DHT22;4900;49.306;8.500;2024-02-23T08:47:25;11.43;56.75
9723;DHT22;4900;49.306;8.500;2024-02-23T08:49:57;11.74;56.76
9723;DHT22;4900;49.306;8.500;2024-02-23T08:52:22;12.04;56.80
9723;DHT22;4900;49.306;8.500;2024-02-23T08:54:48;11.97;55.65
9723;DHT22;4900;49.306;8.500;2024-02-23T08:57:13;12.18;55.69
9723;DHT22;4900;49.306;8.500;2024-02-23T08:59:42;12.41;55.23
9723;DHT22;4900;49.306;8.500;2024-02-23T09:02:08;12.62;55.52
9723;DHT22;4900;49.306;8.500;2024-02-23T09:04:34;12.76;55.85
9723;DHT22;4900;49.306;8.500;2024-02-23T09:07:01;12.96;55.14
9723;DHT22;4900;49.306;8.500;2024-02-23T09:09:26;12.94;54.05
9723;DHT22;4900;49.306;8.500;2024-02-23T09:11:52;13.00;54.00
9723;DHT22;4900;49.306;8.500;2024-02-23T09:14:17;13.04;53.12
9723;DHT22;4900;49.306;8.500;2024-02-23T09:16:43;13.39;52.55
9723;DHT22;4900;49.306;8.500;2024-02-23T09:19:08;13.60;51.58
9723;DHT22;4900;49.306;8.500;2024-02-23T09:21:33;13.67;50.62
9723;DHT22;4900;49.306;8.500;2024-02-23T09:23:59;13.81;50.68
9723;DHT22;4900;49.306;8.500;2024-02-23T09:26:24;13.76;49.94
9723;DHT22;4900;49.306;8.500;2024-02-23T09:28:50;13.80;50.22
9723;DHT22;4900;49.306;8.500;2024-02-23T09:31:15;13.21;50.36
9723;DHT22;4900;49.306;8.500;2024-02-23T09:33:41;13.25;50.07
9723;DHT22;4900;49.306;8.500;2024-02-23T09:36:06;13.03;50.22
9723;DHT22;4900;49.306;8.500;2024-02-23T09:38:32;13.00;50.59
9723;DHT22;4900;49.306;8.500;2024-02-23T09:40:58;13.26;50.48
9723;DHT22;4900;49.306;8.500;2024-02-23T09:43:29;13.04;50.89
9723;DHT22;4900;49.306;8.500;2024-02-23T09:45:56;13.00;51.01
9723;DHT22;4900;49.306;8.500;2024-02-23T09:48:23;13.25;51.60
9723;DHT22;4900;49.306;8.500;2024-02-23T09:50:49;13.33;50.69
9723;DHT22;4900;49.306;8.500;2024-02-23T09:53:15;13.61;50.41
9723;DHT22;4900;49.306;8.500;2024-02-23T09:55:43;13.78;50.04
9723;DHT22;4900;49.306;8.500;2024-02-23T09:58:12;14.00;49.76
9723;DHT22;4900;49.306;8.500;2024-02-23T10:00:39;14.15;49.45
9723;DHT22;4900;49.306;8.500;2024-02-23T10:03:05;14.19;49.13
9723;DHT22;4900;49.306;8.500;2024-02-23T10:05:31;14.74;49.25
9723;DHT22;4900;49.306;8.500;2024-02-23T10:07:59;14.71;48.49
9723;DHT22;4900;49.306;8.500;2024-02-23T10:10:34;14.70;48.25
9723;DHT22;4900;49.306;8.500;2024-02-23T10:13:00;14.89;47.88
9723;DHT22;4900;49.306;8.500;2024-02-23T10:15:28;14.52;47.90
9723;DHT22;4900;49.306;8.500;2024-02-23T10:17:54;14.64;48.16
9723;DHT22;4900;49.306;8.500;2024-02-23T10:20:20;14.88;47.85
9723;DHT22;4900;49.306;8.500;2024-02-23T10:22:45;14.53;47.95
9723;DHT22;4900;49.306;8.500;2024-02-23T10:25:13;14.55;47.88
9723;DHT22;4900;49.306;8.500;2024-02-23T10:27:41;14.39;47.65
9723;DHT22;4900;49.306;8.500;2024-02-23T10:30:10;14.60;47.65
9723;DHT22;4900;49.306;8.500;2024-02-23T10:32:39;14.87;47.67
9723;DHT22;4900;49.306;8.500;2024-02-23T10:35:11;15.40;46.86
9723;DHT22;4900;49.306;8.500;2024-02-23T10:37:38;15.68;46.26
9723;DHT22;4900;49.306;8.500;2024-02-23T10:40:06;15.47;46.01
9723;DHT22;4900;49.306;8.500;2024-02-23T10:42:36;15.74;45.81
9723;DHT22;4900;49.306;8.500;2024-02-23T10:45:05;16.04;45.11
9723;DHT22;4900;49.306;8.500;2024-02-23T10:47:31;16.21;44.45
9723;DHT22;4900;49.306;8.500;2024-02-23T10:50:00;16.78;44.30
9723;DHT22;4900;49.306;8.500;2024-02-23T10:52:26;16.84;43.78
9723;DHT22;4900;49.306;8.500;2024-02-23T10:54:52;16.77;43.35
9723;DHT22;4900;49.306;8.500;2024-02-23T10:57:19;16.84;43.65
9723;DHT22;4900;49.306;8.500;2024-02-23T10:59:47;16.61;43.30
9723;DHT22;4900;49.306;8.500;2024-02-23T11:02:17;16.68;43.88
9723;DHT22;4900;49.306;8.500;2024-02-23T11:04:47;16.28;44.30
9723;DHT22;4900;49.306;8.500;2024-02-23T11:07:19;15.94;44.45
9723;DHT22;4900;49.306;8.500;2024-02-23T11:09:55;16.09;45.22
9723;DHT22;4900;49.306;8.500;2024-02-23T11:12:24;16.11;45.05
9723;DHT22;4900;49.306;8.500;2024-02-23T11:14:50;16.23;44.27
9723;DHT22;4900;49.306;8.500;2024-02-23T11:17:20;16.37;44.16
9723;DHT22;4900;49.306;8.500;2024-02-23T11:19:48;16.63;43.82
9723;DHT22;4900;49.306;8.500;2024-02-23T11:22:14;16.96;44.02
9723;DHT22;4900;49.306;8.500;2024-02-23T11:24:43;16.88;43.58
9723;DHT22;4900;49.306;8.500;2024-02-23T11:27:15;17.23;43.38
9723;DHT22;4900;49.306;8.500;2024-02-23T11:29:45;17.09;42.88
9723;DHT22;4900;49.306;8.500;2024-02-23T11:32:16;17.26;43.08
9723;DHT22;4900;49.306;8.500;2024-02-23T11:34:55;17.30;42.65
9723;DHT22;4900;49.306;8.500;2024-02-23T11:37:23;17.53;42.84
9723;DHT22;4900;49.306;8.500;2024-02-23T11:39:49;17.41;43.07
9723;DHT22;4900;49.306;8.500;2024-02-23T11:42:14;16.98;42.83
9723;DHT22;4900;49.306;8.500;2024-02-23T11:44:41;16.68;42.73
9723;DHT22;4900;49.306;8.500;2024-02-23T11:47:07;16.60;43.43
9723;DHT22;4900;49.306;8.500;2024-02-23T11:49:34;16.34;43.51
9723;DHT22;4900;49.306;8.500;2024-02-23T11:52:00;16.23;44.09
9723;DHT22;4900;49.306;8.500;2024-02-23T11:54:25;15.82;44.61
9723;DHT22;4900;49.306;8.500;2024-02-23T11:56:52;16.04;44.68
9723;DHT22;4900;49.306;8.500;2024-02-23T11:59:19;15.85;45.32
9723;DHT22;4900;49.306;8.500;2024-02-23T12:01:46;15.89;45.06
9723;DHT22;4900;49.306;8.500;2024-02-23T12:04:14;15.60;45.18
9723;DHT22;4900;49.306;8.500;2024-02-23T12:06:40;15.59;45.26
9723;DHT22;4900;49.306;8.500;2024-02-23T12:09:05;15.47;45.36
9723;DHT22;4900;49.306;8.500;2024-02-23T12:11:31;15.33;45.43
9723;DHT22;4900;49.306;8.500;2024-02-23T12:13:57;15.32;45.94
9723;DHT22;4900;49.306;8.500;2024-02-23T12:16:22;14.85;46.53
9723;DHT22;4900;49.306;8.500;2024-02-23T12:18:55;14.61;48.12
9723;DHT22;4900;49.306;8.500;2024-02-23T12:21:21;14.55;48.31
9723;DHT22;4900;49.306;8.500;2024-02-23T12:23:49;14.55;48.19
9723;DHT22;4900;49.306;8.500;2024-02-23T12:26:16;14.52;48.26
9723;DHT22;4900;49.306;8.500;2024-02-23T12:28:43;14.40;48.56
9723;DHT22;4900;49.306;8.500;2024-02-23T12:31:10;14.43;48.47
9723;DHT22;4900;49.306;8.500;2024-02-23T12:33:38;14.46;48.49
9723;DHT22;4900;49.306;8.500;2024-02-23T12:36:07;14.43;48.29
9723;DHT22;4900;49.306;8.500;2024-02-23T12:38:33;14.63;48.24
9723;DHT22;4900;49.306;8.500;2024-02-23T12:41:00;14.73;47.79
9723;DHT22;4900;49.306;8.500;2024-02-23T12:43:26;14.99;47.71
9723;DHT22;4900;49.306;8.500;2024-02-23T12:45:54;15.16;47.18
9723;DHT22;4900;49.306;8.500;2024-02-23T12:48:20;15.32;46.68
9723;DHT22;4900;49.306;8.500;2024-02-23T12:50:49;15.39;46.45
9723;DHT22;4900;49.306;8.500;2024-02-23T12:53:32;14.99;46.40
9723;DHT22;4900;49.306;8.500;2024-02-23T12:56:02;15.23;46.54
9723;DHT22;4900;49.306;8.500;2024-02-23T12:58:28;15.14;46.31
9723;DHT22;4900;49.306;8.500;2024-02-23T13:00:53;15.14;46.44
9723;DHT22;4900;49.306;8.500;2024-02-23T13:03:19;15.31;46.24
9723;DHT22;4900;49.306;8.500;2024-02-23T13:05:45;15.20;45.75
9723;DHT22;4900;49.306;8.500;2024-02-23T13:08:10;15.40;45.88
9723;DHT22;4900;49.306;8.500;2024-02-23T13:10:36;15.59;46.04
9723;DHT22;4900;49.306;8.500;2024-02-23T13:13:01;15.46;45.67
9723;DHT22;4900;49.306;8.500;2024-02-23T13:15:27;15.25;45.92
9723;DHT22;4900;49.306;8.500;2024-02-23T13:17:53;15.31;45.98
9723;DHT22;4900;49.306;8.500;2024-02-23T13:20:18;15.44;45.82
9723;DHT22;4900;49.306;8.500;2024-02-23T13:22:44;15.20;45.85
9723;DHT22;4900;49.306;8.500;2024-02-23T13:25:09;15.08;46.09
9723;DHT22;4900;49.306;8.500;2024-02-23T13:27:34;15.15;45.64
9723;DHT22;4900;49.306;8.500;2024-02-23T13:30:00;15.16;45.70
9723;DHT22;4900;49.306;8.500;2024-02-23T13:32:25;15.36;46.20
9723;DHT22;4900;49.306;8.500;2024-02-23T13:34:51;14.91;45.82
9723;DHT22;4900;49.306;8.500;2024-02-23T13:37:18;14.87;46.44
9723;DHT22;4900;49.306;8.500;2024-02-23T13:39:43;14.99;46.24
9723;DHT22;4900;49.306;8.500;2024-02-23T13:42:09;14.70;46.36
9723;DHT22;4900;49.306;8.500;2024-02-23T13:44:36;14.69;45.94
9723;DHT22;4900;49.306;8.500;2024-02-23T13:47:02;14.76;46.25
9723;DHT22;4900;49.306;8.500;2024-02-23T13:49:27;14.67;46.04
9723;DHT22;4900;49.306;8.500;2024-02-23T13:51:53;14.76;46.12
9723;DHT22;4900;49.306;8.500;2024-02-23T13:54:18;14.64;46.30
9723;DHT22;4900;49.306;8.500;2024-02-23T13:56:44;14.30;46.74
9723;DHT22;4900;49.306;8.500;2024-02-23T13:59:10;14.46;46.72
9723;DHT22;4900;49.306;8.500;2024-02-23T14:01:36;14.36;47.19
9723;DHT22;4900;49.306;8.500;2024-02-23T14:04:06;14.26;47.54
9723;DHT22;4900;49.306;8.500;2024-02-23T14:06:34;13.90;47.65
9723;DHT22;4900;49.306;8.500;2024-02-23T14:09:00;13.86;47.73
9723;DHT22;4900;49.306;8.500;2024-02-23T14:11:25;13.81;47.56
9723;DHT22;4900;49.306;8.500;2024-02-23T14:13:51;13.56;47.81
9723;DHT22;4900;49.306;8.500;2024-02-23T14:16:17;13.78;47.53
9723;DHT22;4900;49.306;8.500;2024-02-23T14:18:42;13.73;47.65
9723;DHT22;4900;49.306;8.500;2024-02-23T14:21:10;13.81;47.76
9723;DHT22;4900;49.306;8.500;2024-02-23T14:23:36;13.94;47.70
9723;DHT22;4900;49.306;8.500;2024-02-23T14:26:03;14.02;47.54
9723;DHT22;4900;49.306;8.500;2024-02-23T14:28:28;14.21;47.60
9723;DHT22;4900;49.306;8.500;2024-02-23T14:30:54;14.26;47.48
9723;DHT22;4900;49.306;8.500;2024-02-23T14:33:20;14.28;47.11
9723;DHT22;4900;49.306;8.500;2024-02-23T14:35:46;14.26;46.87
9723;DHT22;4900;49.306;8.500;2024-02-23T14:38:12;14.40;46.94
9723;DHT22;4900;49.306;8.500;2024-02-23T14:40:37;14.57;47.33
9723;DHT22;4900;49.306;8.500;2024-02-23T14:43:04;14.84;47.98
9723;DHT22;4900;49.306;8.500;2024-02-23T14:45:30;15.15;47.93
9723;DHT22;4900;49.306;8.500;2024-02-23T14:47:55;15.32;46.70
9723;DHT22;4900;49.306;8.500;2024-02-23T14:50:21;15.33;46.08
9723;DHT22;4900;49.306;8.500;2024-02-23T14:52:46;15.44;45.81
9723;DHT22;4900;49.306;8.500;2024-02-23T14:55:12;15.57;46.06
9723;DHT22;4900;49.306;8.500;2024-02-23T14:57:37;15.84;46.21
9723;DHT22;4900;49.306;8.500;2024-02-23T15:00:04;16.32;46.31
9723;DHT22;4900;49.306;8.500;2024-02-23T15:02:30;16.57;45.01
9723;DHT22;4900;49.306;8.500;2024-02-23T15:04:55;16.81;45.51
9723;DHT22;4900;49.306;8.500;2024-02-23T15:07:20;17.19;45.01
9723;DHT22;4900;49.306;8.500;2024-02-23T15:09:46;17.33;43.65
9723;DHT22;4900;49.306;8.500;2024-02-23T15:12:13;17.06;42.53
9723;DHT22;4900;49.306;8.500;2024-02-23T15:14:39;16.83;42.56
9723;DHT22;4900;49.306;8.500;2024-02-23T15:17:05;16.49;42.83
9723;DHT22;4900;49.306;8.500;2024-02-23T15:19:31;16.15;43.13
9723;DHT22;4900;49.306;8.500;2024-02-23T15:21:57;15.91;43.13
9723;DHT22;4900;49.306;8.500;2024-02-23T15:24:24;15.60;43.58
9723;DHT22;4900;49.306;8.500;2024-02-23T15:26:50;15.29;44.02
9723;DHT22;4900;49.306;8.500;2024-02-23T15:29:16;15.35;44.24
9723;DHT22;4900;49.306;8.500;2024-02-23T15:31:41;15.09;44.59
9723;DHT22;4900;49.306;8.500;2024-02-23T15:34:09;14.81;45.04
9723;DHT22;4900;49.306;8.500;2024-02-23T15:36:35;14.84;45.88
9723;DHT22;4900;49.306;8.500;2024-02-23T15:39:00;15.04;45.78
9723;DHT22;4900;49.306;8.500;2024-02-23T15:41:31;15.40;46.27
9723;DHT22;4900;49.306;8.500;2024-02-23T15:43:59;15.59;44.09
9723;DHT22;4900;49.306;8.500;2024-02-23T15:46:25;15.64;44.12
9723;DHT22;4900;49.306;8.500;2024-02-23T15:48:51;15.95;44.68
9723;DHT22;4900;49.306;8.500;2024-02-23T15:51:16;16.26;44.86
9723;DHT22;4900;49.306;8.500;2024-02-23T15:53:41;16.41;43.42
9723;DHT22;4900;49.306;8.500;2024-02-23T15:56:07;16.50;43.02
9723;DHT22;4900;49.306;8.500;2024-02-23T15:58:32;16.46;42.42
9723;DHT22;4900;49.306;8.500;2024-02-23T16:00:58;16.33;42.17
9723;DHT22;4900;49.306;8.500;2024-02-23T16:03:23;16.26;42.26